sensor_id;sensor_type;location;lat;lon;timestamp;P1;durP1;ratioP1;P2;durP2;ratioP2
66384;SDS011;53426;55.872;37.462;2024-03-25T00:02:13;1.85;;;1.75;;
66384;SDS011;53426;55.872;37.462;2024-03-25T00:04:40;1.35;;;1.27;;
66384;SDS011;53426;55.872;37.462;2024-03-25T00:07:06;0.60;;;0.60;;
66384;SDS011;53426;55.872;37.462;2024-03-25T00:09:32;1.40;;;1.20;;
66384;SDS011;53426;55.872;37.462;2024-03-25T00:11:58;0.52;;;0.52;;
66384;SDS011;53426;55.872;37.462;2024-03-25T00:14:23;0.88;;;0.88;;
66384;SDS011;53426;55.872;37.462;2024-03-25T00:16:49;0.70;;;0.70;;
66384;SDS011;53426;55.872;37.462;2024-03-25T00:19:16;0.70;;;0.70;;
66384;SDS011;53426;55.872;37.462;2024-03-25T00:21:41;0.50;;;0.50;;
66384;SDS011;53426;55.872;37.462;2024-03-25T00:24:08;0.90;;;0.90;;
66384;SDS011;53426;55.872;37.462;2024-03-25T00:26:34;0.90;;;0.85;;
66384;SDS011;53426;55.872;37.462;2024-03-25T00:29:00;0.60;;;0.60;;
66384;SDS011;53426;55.872;37.462;2024-03-25T00:31:26;0.50;;;0.50;;
66384;SDS011;53426;55.872;37.462;2024-03-25T00:33:52;0.50;;;0.50;;
66384;SDS011;53426;55.872;37.462;2024-03-25T00:36:18;0.70;;;0.70;;
66384;SDS011;53426;55.872;37.462;2024-03-25T00:39:03;0.65;;;0.65;;
66384;SDS011;53426;55.872;37.462;2024-03-25T00:41:29;0.57;;;0.50;;
66384;SDS011;53426;55.872;37.462;2024-03-25T00:43:55;0.60;;;0.60;;
66384;SDS011;53426;55.872;37.462;2024-03-25T00:52:11;0.85;;;0.80;;
66384;SDS011;53426;55.872;37.462;2024-03-25T00:57:32;0.70;;;0.70;;
66384;SDS011;53426;55.872;37.462;2024-03-25T00:59:59;0.68;;;0.65;;
66384;SDS011;53426;55.872;37.462;2024-03-25T01:02:25;0.60;;;0.60;;
66384;SDS011;53426;55.872;37.462;2024-03-25T01:04:53;0.60;;;0.60;;
66384;SDS011;53426;55.872;37.462;2024-03-25T01:07:20;0.50;;;0.50;;
66384;SDS011;53426;55.872;37.462;2024-03-25T01:09:46;1.42;;;0.68;;
66384;SDS011;53426;55.872;37.462;2024-03-25T01:15:04;0.55;;;0.55;;
66384;SDS011;53426;55.872;37.462;2024-03-25T01:17:31;1.50;;;0.60;;
66384;SDS011;53426;55.872;37.462;2024-03-25T01:19:57;0.70;;;0.70;;
66384;SDS011;53426;55.872;37.462;2024-03-25T01:22:23;0.73;;;0.73;;
66384;SDS011;53426;55.872;37.462;2024-03-25T01:24:50;0.65;;;0.65;;
66384;SDS011;53426;55.872;37.462;2024-03-25T01:27:16;0.68;;;0.68;;
66384;SDS011;53426;55.872;37.462;2024-03-25T01:32:38;1.00;;;0.95;;
66384;SDS011;53426;55.872;37.462;2024-03-25T01:40:53;0.70;;;0.70;;
66384;SDS011;53426;55.872;37.462;2024-03-25T01:43:19;0.50;;;0.50;;
66384;SDS011;53426;55.872;37.462;2024-03-25T01:45:45;0.70;;;0.70;;
66384;SDS011;53426;55.872;37.462;2024-03-25T01:48:11;0.60;;;0.60;;
66384;SDS011;53426;55.872;37.462;2024-03-25T01:50:42;0.60;;;0.60;;
66384;SDS011;53426;55.872;37.462;2024-03-25T01:53:11;0.60;;;0.60;;
66384;SDS011;53426;55.872;37.462;2024-03-25T01:55:39;0.50;;;0.50;;
66384;SDS011;53426;55.872;37.462;2024-03-25T01:58:09;0.52;;;0.52;;
66384;SDS011;53426;55.872;37.462;2024-03-25T02:00:35;2.38;;;0.50;;
66384;SDS011;53426;55.872;37.462;2024-03-25T02:03:02;0.55;;;0.55;;
66384;SDS011;53426;55.872;37.462;2024-03-25T02:05:29;0.50;;;0.50;;
66384;SDS011;53426;55.872;37.462;2024-03-25T02:07:55;0.60;;;0.60;;
66384;SDS011;53426;55.872;37.462;2024-03-25T02:10:21;0.43;;;0.43;;
66384;SDS011;53426;55.872;37.462;2024-03-25T02:12:48;0.40;;;0.40;;
66384;SDS011;53426;55.872;37.462;2024-03-25T02:15:16;0.50;;;0.50;;
66384;SDS011;53426;55.872;37.462;2024-03-25T02:17:44;0.60;;;0.60;;
66384;SDS011;53426;55.872;37.462;2024-03-25T02:20:10;0.60;;;0.60;;
66384;SDS011;53426;55.872;37.462;2024-03-25T02:22:38;2.42;;;0.63;;
66384;SDS011;53426;55.872;37.462;2024-03-25T02:25:05;0.65;;;0.65;;
66384;SDS011;53426;55.872;37.462;2024-03-25T02:27:38;1.17;;;0.65;;
66384;SDS011;53426;55.872;37.462;2024-03-25T02:30:11;0.57;;;0.55;;
66384;SDS011;53426;55.872;37.462;2024-03-25T02:32:58;0.60;;;0.60;;
66384;SDS011;53426;55.872;37.462;2024-03-25T02:35:26;0.57;;;0.57;;
66384;SDS011;53426;55.872;37.462;2024-03-25T02:38:27;0.60;;;0.60;;
66384;SDS011;53426;55.872;37.462;2024-03-25T02:40:56;0.70;;;0.70;;
66384;SDS011;53426;55.872;37.462;2024-03-25T02:43:25;0.70;;;0.70;;
66384;SDS011;53426;55.872;37.462;2024-03-25T02:45:59;0.80;;;0.80;;
66384;SDS011;53426;55.872;37.462;2024-03-25T02:51:32;0.77;;;0.77;;
66384;SDS011;53426;55.872;37.462;2024-03-25T02:53:58;0.75;;;0.75;;
66384;SDS011;53426;55.872;37.462;2024-03-25T02:56:24;0.88;;;0.88;;
66384;SDS011;53426;55.872;37.462;2024-03-25T02:58:50;0.70;;;0.70;;
66384;SDS011;53426;55.872;37.462;2024-03-25T03:01:16;0.88;;;0.88;;
66384;SDS011;53426;55.872;37.462;2024-03-25T03:03:42;0.63;;;0.63;;
66384;SDS011;53426;55.872;37.462;2024-03-25T03:06:08;0.70;;;0.70;;
66384;SDS011;53426;55.872;37.462;2024-03-25T03:08:34;0.70;;;0.70;;
66384;SDS011;53426;55.872;37.462;2024-03-25T03:11:01;1.95;;;0.80;;
66384;SDS011;53426;55.872;37.462;2024-03-25T03:16:18;0.80;;;0.80;;
66384;SDS011;53426;55.872;37.462;2024-03-25T03:18:44;1.15;;;1.00;;
66384;SDS011;53426;55.872;37.462;2024-03-25T03:21:12;1.00;;;1.00;;
66384;SDS011;53426;55.872;37.462;2024-03-25T03:23:48;1.13;;;0.80;;
66384;SDS011;53426;55.872;37.462;2024-03-25T03:26:17;0.88;;;0.88;;
66384;SDS011;53426;55.872;37.462;2024-03-25T03:28:43;1.00;;;1.00;;
66384;SDS011;53426;55.872;37.462;2024-03-25T03:33:49;0.93;;;0.93;;
66384;SDS011;53426;55.872;37.462;2024-03-25T03:36:27;0.93;;;0.90;;
66384;SDS011;53426;55.872;37.462;2024-03-25T03:38:53;1.00;;;1.00;;
66384;SDS011;53426;55.872;37.462;2024-03-25T03:41:19;0.90;;;0.90;;
66384;SDS011;53426;55.872;37.462;2024-03-25T03:43:45;0.90;;;0.80;;
66384;SDS011;53426;55.872;37.462;2024-03-25T03:46:11;1.48;;;1.00;;
66384;SDS011;53426;55.872;37.462;2024-03-25T03:48:37;1.13;;;0.98;;
66384;SDS011;53426;55.872;37.462;2024-03-25T03:51:04;1.10;;;1.10;;
66384;SDS011;53426;55.872;37.462;2024-03-25T03:53:32;0.80;;;0.80;;
66384;SDS011;53426;55.872;37.462;2024-03-25T03:56:00;1.52;;;0.98;;
66384;SDS011;53426;55.872;37.462;2024-03-25T03:58:29;1.80;;;1.10;;
66384;SDS011;53426;55.872;37.462;2024-03-25T04:00:58;1.20;;;1.10;;
66384;SDS011;53426;55.872;37.462;2024-03-25T04:03:25;1.20;;;1.20;;
66384;SDS011;53426;55.872;37.462;2024-03-25T04:05:51;2.38;;;1.20;;
66384;SDS011;53426;55.872;37.462;2024-03-25T04:08:19;1.70;;;1.20;;
66384;SDS011;53426;55.872;37.462;2024-03-25T04:10:45;2.17;;;1.40;;
66384;SDS011;53426;55.872;37.462;2024-03-25T04:13:26;1.00;;;1.00;;
66384;SDS011;53426;55.872;37.462;2024-03-25T04:15:52;3.33;;;1.20;;
66384;SDS011;53426;55.872;37.462;2024-03-25T04:18:18;1.10;;;1.10;;
66384;SDS011;53426;55.872;37.462;2024-03-25T04:20:46;2.00;;;1.10;;
66384;SDS011;53426;55.872;37.462;2024-03-25T04:26:03;1.80;;;1.70;;
66384;SDS011;53426;55.872;37.462;2024-03-25T04:28:52;2.42;;;1.92;;
66384;SDS011;53426;55.872;37.462;2024-03-25T04:31:18;1.10;;;1.10;;
66384;SDS011;53426;55.872;37.462;2024-03-25T04:33:54;1.67;;;1.40;;
66384;SDS011;53426;55.872;37.462;2024-03-25T04:36:20;2.65;;;1.20;;
66384;SDS011;53426;55.872;37.462;2024-03-25T04:38:46;1.00;;;1.00;;
66384;SDS011;53426;55.872;37.462;2024-03-25T04:41:15;1.20;;;1.08;;
66384;SDS011;53426;55.872;37.462;2024-03-25T04:43:41;1.40;;;1.27;;
66384;SDS011;53426;55.872;37.462;2024-03-25T04:46:07;1.80;;;1.30;;
66384;SDS011;53426;55.872;37.462;2024-03-25T04:51:53;0.93;;;0.93;;
66384;SDS011;53426;55.872;37.462;2024-03-25T04:54:41;2.83;;;1.30;;
66384;SDS011;53426;55.872;37.462;2024-03-25T04:57:07;1.13;;;1.10;;
66384;SDS011;53426;55.872;37.462;2024-03-25T04:59:35;1.50;;;1.38;;
66384;SDS011;53426;55.872;37.462;2024-03-25T05:02:02;2.78;;;1.55;;
66384;SDS011;53426;55.872;37.462;2024-03-25T05:04:31;1.75;;;1.55;;
66384;SDS011;53426;55.872;37.462;2024-03-25T05:06:57;3.03;;;1.25;;
66384;SDS011;53426;55.872;37.462;2024-03-25T05:09:23;1.50;;;1.40;;
66384;SDS011;53426;55.872;37.462;2024-03-25T05:11:50;1.60;;;1.48;;
66384;SDS011;53426;55.872;37.462;2024-03-25T05:14:16;1.77;;;1.40;;
66384;SDS011;53426;55.872;37.462;2024-03-25T05:16:42;1.85;;;1.63;;
66384;SDS011;53426;55.872;37.462;2024-03-25T05:19:08;1.88;;;1.30;;
66384;SDS011;53426;55.872;37.462;2024-03-25T05:21:35;1.50;;;1.40;;
66384;SDS011;53426;55.872;37.462;2024-03-25T05:24:01;2.85;;;1.60;;
66384;SDS011;53426;55.872;37.462;2024-03-25T05:26:27;1.52;;;1.13;;
66384;SDS011;53426;55.872;37.462;2024-03-25T05:28:53;1.60;;;1.50;;
66384;SDS011;53426;55.872;37.462;2024-03-25T05:31:23;5.25;;;1.48;;
66384;SDS011;53426;55.872;37.462;2024-03-25T05:33:50;2.42;;;1.50;;
66384;SDS011;53426;55.872;37.462;2024-03-25T05:37:02;3.15;;;1.48;;
66384;SDS011;53426;55.872;37.462;2024-03-25T05:39:28;1.85;;;1.50;;
66384;SDS011;53426;55.872;37.462;2024-03-25T05:41:54;1.65;;;1.55;;
66384;SDS011;53426;55.872;37.462;2024-03-25T05:44:20;3.33;;;1.85;;
66384;SDS011;53426;55.872;37.462;2024-03-25T05:47:04;1.70;;;1.10;;
66384;SDS011;53426;55.872;37.462;2024-03-25T05:49:30;1.48;;;1.38;;
66384;SDS011;53426;55.872;37.462;2024-03-25T05:55:16;3.50;;;1.50;;
66384;SDS011;53426;55.872;37.462;2024-03-25T06:09:14;3.13;;;1.67;;
66384;SDS011;53426;55.872;37.462;2024-03-25T06:11:40;2.28;;;1.70;;
66384;SDS011;53426;55.872;37.462;2024-03-25T06:14:06;1.80;;;1.52;;
66384;SDS011;53426;55.872;37.462;2024-03-25T06:16:32;1.30;;;1.20;;
66384;SDS011;53426;55.872;37.462;2024-03-25T06:18:58;4.53;;;1.40;;
66384;SDS011;53426;55.872;37.462;2024-03-25T06:21:25;2.47;;;2.28;;
66384;SDS011;53426;55.872;37.462;2024-03-25T06:23:54;2.22;;;1.40;;
66384;SDS011;53426;55.872;37.462;2024-03-25T06:26:20;1.30;;;1.15;;
66384;SDS011;53426;55.872;37.462;2024-03-25T06:29:04;4.10;;;1.40;;
66384;SDS011;53426;55.872;37.462;2024-03-25T06:31:30;4.28;;;1.33;;
66384;SDS011;53426;55.872;37.462;2024-03-25T06:34:15;5.40;;;1.60;;
66384;SDS011;53426;55.872;37.462;2024-03-25T06:36:45;3.15;;;1.65;;
66384;SDS011;53426;55.872;37.462;2024-03-25T06:41:50;4.97;;;1.60;;
66384;SDS011;53426;55.872;37.462;2024-03-25T06:44:16;4.20;;;1.52;;
66384;SDS011;53426;55.872;37.462;2024-03-25T06:46:43;2.45;;;1.58;;
66384;SDS011;53426;55.872;37.462;2024-03-25T06:49:29;4.70;;;2.00;;
66384;SDS011;53426;55.872;37.462;2024-03-25T06:51:58;2.25;;;1.80;;
66384;SDS011;53426;55.872;37.462;2024-03-25T06:54:25;4.13;;;1.70;;
66384;SDS011;53426;55.872;37.462;2024-03-25T06:56:51;1.60;;;1.50;;
66384;SDS011;53426;55.872;37.462;2024-03-25T06:59:17;4.82;;;2.10;;
66384;SDS011;53426;55.872;37.462;2024-03-25T07:05:35;3.40;;;2.08;;
66384;SDS011;53426;55.872;37.462;2024-03-25T07:08:04;9.07;;;2.30;;
66384;SDS011;53426;55.872;37.462;2024-03-25T07:10:31;4.75;;;3.03;;
66384;SDS011;53426;55.872;37.462;2024-03-25T07:12:57;5.35;;;1.80;;
66384;SDS011;53426;55.872;37.462;2024-03-25T07:15:22;3.38;;;2.20;;
66384;SDS011;53426;55.872;37.462;2024-03-25T07:17:48;4.65;;;1.63;;
66384;SDS011;53426;55.872;37.462;2024-03-25T07:20:17;5.28;;;1.55;;
66384;SDS011;53426;55.872;37.462;2024-03-25T07:23:05;2.28;;;1.88;;
66384;SDS011;53426;55.872;37.462;2024-03-25T07:25:31;5.88;;;1.70;;
66384;SDS011;53426;55.872;37.462;2024-03-25T07:27:58;6.22;;;2.58;;
66384;SDS011;53426;55.872;37.462;2024-03-25T07:30:28;4.55;;;2.40;;
66384;SDS011;53426;55.872;37.462;2024-03-25T07:32:58;2.65;;;1.98;;
66384;SDS011;53426;55.872;37.462;2024-03-25T07:35:26;3.28;;;1.60;;
66384;SDS011;53426;55.872;37.462;2024-03-25T07:41:10;1.85;;;1.63;;
66384;SDS011;53426;55.872;37.462;2024-03-25T07:43:41;3.60;;;1.88;;
66384;SDS011;53426;55.872;37.462;2024-03-25T07:46:07;2.88;;;1.88;;
66384;SDS011;53426;55.872;37.462;2024-03-25T07:48:33;4.68;;;2.28;;
66384;SDS011;53426;55.872;37.462;2024-03-25T07:51:01;4.90;;;1.80;;
66384;SDS011;53426;55.872;37.462;2024-03-25T07:53:27;6.10;;;2.35;;
66384;SDS011;53426;55.872;37.462;2024-03-25T07:56:30;4.78;;;1.60;;
66384;SDS011;53426;55.872;37.462;2024-03-25T07:58:58;6.72;;;2.17;;
66384;SDS011;53426;55.872;37.462;2024-03-25T08:04:16;2.47;;;1.52;;
66384;SDS011;53426;55.872;37.462;2024-03-25T08:06:42;5.70;;;2.30;;
66384;SDS011;53426;55.872;37.462;2024-03-25T08:09:09;6.28;;;2.65;;
66384;SDS011;53426;55.872;37.462;2024-03-25T08:11:35;3.22;;;2.03;;
66384;SDS011;53426;55.872;37.462;2024-03-25T08:14:02;9.77;;;2.67;;
66384;SDS011;53426;55.872;37.462;2024-03-25T08:16:28;9.20;;;1.70;;
66384;SDS011;53426;55.872;37.462;2024-03-25T08:18:55;11.68;;;1.85;;
66384;SDS011;53426;55.872;37.462;2024-03-25T08:21:22;14.25;;;1.92;;
66384;SDS011;53426;55.872;37.462;2024-03-25T08:30:32;7.40;;;1.63;;
66384;SDS011;53426;55.872;37.462;2024-03-25T08:32:59;9.52;;;1.90;;
66384;SDS011;53426;55.872;37.462;2024-03-25T08:35:34;4.43;;;1.73;;
66384;SDS011;53426;55.872;37.462;2024-03-25T08:38:07;8.68;;;2.03;;
66384;SDS011;53426;55.872;37.462;2024-03-25T08:40:47;5.07;;;2.22;;
66384;SDS011;53426;55.872;37.462;2024-03-25T08:51:34;3.90;;;2.30;;
66384;SDS011;53426;55.872;37.462;2024-03-25T08:54:03;6.05;;;1.80;;
66384;SDS011;53426;55.872;37.462;2024-03-25T08:56:29;5.00;;;2.42;;
66384;SDS011;53426;55.872;37.462;2024-03-25T08:58:56;8.00;;;2.28;;
66384;SDS011;53426;55.872;37.462;2024-03-25T09:01:23;6.93;;;2.58;;
66384;SDS011;53426;55.872;37.462;2024-03-25T09:03:50;9.77;;;2.30;;
66384;SDS011;53426;55.872;37.462;2024-03-25T09:06:18;9.65;;;2.40;;
66384;SDS011;53426;55.872;37.462;2024-03-25T09:08:47;6.75;;;2.13;;
66384;SDS011;53426;55.872;37.462;2024-03-25T09:11:44;4.18;;;2.08;;
66384;SDS011;53426;55.872;37.462;2024-03-25T09:14:14;4.13;;;1.52;;
66384;SDS011;53426;55.872;37.462;2024-03-25T09:16:40;5.25;;;1.55;;
66384;SDS011;53426;55.872;37.462;2024-03-25T09:19:06;13.65;;;2.60;;
66384;SDS011;53426;55.872;37.462;2024-03-25T09:21:33;7.35;;;2.03;;
66384;SDS011;53426;55.872;37.462;2024-03-25T09:23:58;5.80;;;2.20;;
66384;SDS011;53426;55.872;37.462;2024-03-25T09:26:24;11.73;;;2.20;;
66384;SDS011;53426;55.872;37.462;2024-03-25T09:28:50;2.90;;;1.65;;
66384;SDS011;53426;55.872;37.462;2024-03-25T09:31:16;6.80;;;1.70;;
66384;SDS011;53426;55.872;37.462;2024-03-25T09:33:42;3.95;;;1.50;;
66384;SDS011;53426;55.872;37.462;2024-03-25T09:36:09;3.58;;;2.25;;
66384;SDS011;53426;55.872;37.462;2024-03-25T09:38:37;5.53;;;2.08;;
66384;SDS011;53426;55.872;37.462;2024-03-25T09:41:03;3.08;;;2.10;;
66384;SDS011;53426;55.872;37.462;2024-03-25T09:43:33;4.80;;;2.13;;
66384;SDS011;53426;55.872;37.462;2024-03-25T09:46:11;3.70;;;1.90;;
66384;SDS011;53426;55.872;37.462;2024-03-25T09:49:11;5.32;;;2.03;;
66384;SDS011;53426;55.872;37.462;2024-03-25T09:54:54;6.25;;;2.08;;
66384;SDS011;53426;55.872;37.462;2024-03-25T09:57:20;3.00;;;1.85;;
66384;SDS011;53426;55.872;37.462;2024-03-25T09:59:46;5.03;;;1.75;;
66384;SDS011;53426;55.872;37.462;2024-03-25T10:02:12;3.88;;;1.55;;
66384;SDS011;53426;55.872;37.462;2024-03-25T10:04:44;5.70;;;1.80;;
66384;SDS011;53426;55.872;37.462;2024-03-25T10:07:16;3.97;;;2.53;;
66384;SDS011;53426;55.872;37.462;2024-03-25T10:12:16;8.07;;;2.15;;
66384;SDS011;53426;55.872;37.462;2024-03-25T10:14:43;3.20;;;2.05;;
66384;SDS011;53426;55.872;37.462;2024-03-25T10:17:09;7.30;;;2.10;;
66384;SDS011;53426;55.872;37.462;2024-03-25T10:19:35;5.75;;;2.45;;
66384;SDS011;53426;55.872;37.462;2024-03-25T10:22:05;5.57;;;2.10;;
66384;SDS011;53426;55.872;37.462;2024-03-25T10:24:42;5.32;;;1.70;;
66384;SDS011;53426;55.872;37.462;2024-03-25T10:27:09;5.30;;;2.08;;
66384;SDS011;53426;55.872;37.462;2024-03-25T10:29:46;4.97;;;1.80;;
66384;SDS011;53426;55.872;37.462;2024-03-25T10:32:19;4.78;;;1.77;;
66384;SDS011;53426;55.872;37.462;2024-03-25T10:34:45;2.90;;;1.88;;
66384;SDS011;53426;55.872;37.462;2024-03-25T10:37:11;2.95;;;1.45;;
66384;SDS011;53426;55.872;37.462;2024-03-25T10:39:43;3.70;;;2.50;;
66384;SDS011;53426;55.872;37.462;2024-03-25T10:42:16;5.25;;;1.80;;
66384;SDS011;53426;55.872;37.462;2024-03-25T10:44:45;9.27;;;2.38;;
66384;SDS011;53426;55.872;37.462;2024-03-25T10:47:14;7.32;;;2.63;;
66384;SDS011;53426;55.872;37.462;2024-03-25T10:49:57;6.22;;;1.88;;
66384;SDS011;53426;55.872;37.462;2024-03-25T10:52:24;8.07;;;2.03;;
66384;SDS011;53426;55.872;37.462;2024-03-25T10:54:52;6.05;;;1.85;;
66384;SDS011;53426;55.872;37.462;2024-03-25T10:57:22;2.92;;;1.80;;
66384;SDS011;53426;55.872;37.462;2024-03-25T10:59:48;3.03;;;1.77;;
66384;SDS011;53426;55.872;37.462;2024-03-25T11:02:15;6.30;;;1.98;;
66384;SDS011;53426;55.872;37.462;2024-03-25T11:07:37;6.03;;;2.22;;
66384;SDS011;53426;55.872;37.462;2024-03-25T11:10:17;8.13;;;1.90;;
66384;SDS011;53426;55.872;37.462;2024-03-25T11:12:43;1.90;;;1.60;;
66384;SDS011;53426;55.872;37.462;2024-03-25T11:19:31;4.90;;;2.35;;
66384;SDS011;53426;55.872;37.462;2024-03-25T11:22:23;8.43;;;2.00;;
66384;SDS011;53426;55.872;37.462;2024-03-25T11:24:50;2.67;;;2.10;;
66384;SDS011;53426;55.872;37.462;2024-03-25T11:27:28;4.32;;;2.15;;
66384;SDS011;53426;55.872;37.462;2024-03-25T11:29:57;7.38;;;2.03;;
66384;SDS011;53426;55.872;37.462;2024-03-25T11:32:23;6.93;;;2.10;;
66384;SDS011;53426;55.872;37.462;2024-03-25T11:34:50;5.55;;;1.77;;
66384;SDS011;53426;55.872;37.462;2024-03-25T11:40:08;2.85;;;1.70;;
66384;SDS011;53426;55.872;37.462;2024-03-25T11:42:38;2.33;;;1.90;;
66384;SDS011;53426;55.872;37.462;2024-03-25T11:48:09;11.30;;;2.17;;
66384;SDS011;53426;55.872;37.462;2024-03-25T11:50:38;6.72;;;2.15;;
66384;SDS011;53426;55.872;37.462;2024-03-25T11:53:04;3.47;;;2.58;;
66384;SDS011;53426;55.872;37.462;2024-03-25T11:55:31;6.18;;;2.30;;
66384;SDS011;53426;55.872;37.462;2024-03-25T11:57:57;4.05;;;2.13;;
66384;SDS011;53426;55.872;37.462;2024-03-25T12:00:24;10.68;;;2.38;;
66384;SDS011;53426;55.872;37.462;2024-03-25T12:02:53;5.47;;;2.08;;
66384;SDS011;53426;55.872;37.462;2024-03-25T12:05:21;7.25;;;2.55;;
66384;SDS011;53426;55.872;37.462;2024-03-25T12:07:47;7.80;;;2.30;;
66384;SDS011;53426;55.872;37.462;2024-03-25T12:10:15;4.13;;;2.13;;
66384;SDS011;53426;55.872;37.462;2024-03-25T12:13:03;4.35;;;2.63;;
66384;SDS011;53426;55.872;37.462;2024-03-25T12:24:38;4.90;;;2.28;;
66384;SDS011;53426;55.872;37.462;2024-03-25T12:27:04;8.02;;;2.28;;
66384;SDS011;53426;55.872;37.462;2024-03-25T12:29:31;4.70;;;2.40;;
66384;SDS011;53426;55.872;37.462;2024-03-25T12:31:58;2.95;;;1.92;;
66384;SDS011;53426;55.872;37.462;2024-03-25T12:34:27;5.72;;;2.60;;
66384;SDS011;53426;55.872;37.462;2024-03-25T12:37:01;16.83;;;2.70;;
66384;SDS011;53426;55.872;37.462;2024-03-25T12:39:31;2.67;;;2.15;;
66384;SDS011;53426;55.872;37.462;2024-03-25T12:42:03;4.57;;;2.40;;
66384;SDS011;53426;55.872;37.462;2024-03-25T12:44:48;12.27;;;2.47;;
66384;SDS011;53426;55.872;37.462;2024-03-25T12:47:15;5.32;;;3.10;;
66384;SDS011;53426;55.872;37.462;2024-03-25T12:49:41;12.15;;;2.83;;
66384;SDS011;53426;55.872;37.462;2024-03-25T12:52:07;5.35;;;2.53;;
66384;SDS011;53426;55.872;37.462;2024-03-25T12:54:33;6.13;;;2.40;;
66384;SDS011;53426;55.872;37.462;2024-03-25T12:56:59;11.23;;;3.10;;
66384;SDS011;53426;55.872;37.462;2024-03-25T12:59:26;23.23;;;3.50;;
66384;SDS011;53426;55.872;37.462;2024-03-25T13:01:54;7.40;;;2.42;;
66384;SDS011;53426;55.872;37.462;2024-03-25T13:04:20;4.00;;;2.15;;
66384;SDS011;53426;55.872;37.462;2024-03-25T13:14:58;4.68;;;2.33;;
66384;SDS011;53426;55.872;37.462;2024-03-25T13:17:25;4.85;;;2.40;;
66384;SDS011;53426;55.872;37.462;2024-03-25T13:19:51;2.92;;;2.00;;
66384;SDS011;53426;55.872;37.462;2024-03-25T13:22:17;4.25;;;2.50;;
66384;SDS011;53426;55.872;37.462;2024-03-25T13:24:43;2.85;;;2.17;;
66384;SDS011;53426;55.872;37.462;2024-03-25T13:27:09;6.40;;;2.30;;
66384;SDS011;53426;55.872;37.462;2024-03-25T13:29:35;5.13;;;2.25;;
66384;SDS011;53426;55.872;37.462;2024-03-25T13:32:03;7.93;;;1.98;;
66384;SDS011;53426;55.872;37.462;2024-03-25T13:34:29;4.72;;;2.10;;
66384;SDS011;53426;55.872;37.462;2024-03-25T13:36:55;7.82;;;2.72;;
66384;SDS011;53426;55.872;37.462;2024-03-25T13:39:21;11.32;;;2.30;;
66384;SDS011;53426;55.872;37.462;2024-03-25T13:42:05;8.02;;;2.42;;
66384;SDS011;53426;55.872;37.462;2024-03-25T13:44:31;7.20;;;2.65;;
66384;SDS011;53426;55.872;37.462;2024-03-25T13:47:00;11.38;;;2.75;;
66384;SDS011;53426;55.872;37.462;2024-03-25T13:49:26;6.50;;;2.65;;
66384;SDS011;53426;55.872;37.462;2024-03-25T13:51:57;6.13;;;2.80;;
66384;SDS011;53426;55.872;37.462;2024-03-25T13:54:27;7.75;;;2.78;;
66384;SDS011;53426;55.872;37.462;2024-03-25T13:56:53;6.57;;;2.33;;
66384;SDS011;53426;55.872;37.462;2024-03-25T13:59:19;4.07;;;2.63;;
66384;SDS011;53426;55.872;37.462;2024-03-25T14:01:45;4.38;;;2.42;;
66384;SDS011;53426;55.872;37.462;2024-03-25T14:04:11;12.85;;;2.35;;
66384;SDS011;53426;55.872;37.462;2024-03-25T14:06:37;11.48;;;2.03;;
66384;SDS011;53426;55.872;37.462;2024-03-25T14:09:04;5.05;;;2.25;;
66384;SDS011;53426;55.872;37.462;2024-03-25T14:14:44;3.50;;;2.28;;
66384;SDS011;53426;55.872;37.462;2024-03-25T14:17:10;6.15;;;2.13;;
66384;SDS011;53426;55.872;37.462;2024-03-25T14:19:36;4.45;;;2.72;;
66384;SDS011;53426;55.872;37.462;2024-03-25T14:22:02;5.90;;;2.00;;
66384;SDS011;53426;55.872;37.462;2024-03-25T14:24:28;9.32;;;2.13;;
66384;SDS011;53426;55.872;37.462;2024-03-25T14:26:54;4.82;;;2.10;;
66384;SDS011;53426;55.872;37.462;2024-03-25T14:29:20;3.88;;;2.00;;
66384;SDS011;53426;55.872;37.462;2024-03-25T14:31:46;5.25;;;2.63;;
66384;SDS011;53426;55.872;37.462;2024-03-25T14:36:58;5.75;;;2.47;;
66384;SDS011;53426;55.872;37.462;2024-03-25T14:39:27;10.23;;;2.30;;
66384;SDS011;53426;55.872;37.462;2024-03-25T14:41:53;12.80;;;2.13;;
66384;SDS011;53426;55.872;37.462;2024-03-25T14:44:19;6.38;;;1.92;;
66384;SDS011;53426;55.872;37.462;2024-03-25T14:46:45;5.68;;;1.88;;
66384;SDS011;53426;55.872;37.462;2024-03-25T14:49:11;11.73;;;2.25;;
66384;SDS011;53426;55.872;37.462;2024-03-25T14:51:37;7.72;;;2.15;;
66384;SDS011;53426;55.872;37.462;2024-03-25T14:54:03;4.45;;;2.20;;
66384;SDS011;53426;55.872;37.462;2024-03-25T14:56:29;4.25;;;2.15;;
66384;SDS011;53426;55.872;37.462;2024-03-25T14:58:55;7.68;;;2.25;;
66384;SDS011;53426;55.872;37.462;2024-03-25T15:01:21;4.03;;;2.33;;
66384;SDS011;53426;55.872;37.462;2024-03-25T15:03:47;5.78;;;2.50;;
66384;SDS011;53426;55.872;37.462;2024-03-25T15:06:14;5.70;;;2.25;;
66384;SDS011;53426;55.872;37.462;2024-03-25T15:08:39;2.72;;;2.00;;
66384;SDS011;53426;55.872;37.462;2024-03-25T15:11:06;2.75;;;2.00;;
66384;SDS011;53426;55.872;37.462;2024-03-25T15:13:32;7.15;;;1.95;;
66384;SDS011;53426;55.872;37.462;2024-03-25T15:15:58;4.93;;;2.40;;
66384;SDS011;53426;55.872;37.462;2024-03-25T15:18:24;9.60;;;3.38;;
66384;SDS011;53426;55.872;37.462;2024-03-25T15:21:02;11.38;;;2.53;;
66384;SDS011;53426;55.872;37.462;2024-03-25T15:23:30;7.25;;;2.55;;
66384;SDS011;53426;55.872;37.462;2024-03-25T15:25:56;8.98;;;2.33;;
66384;SDS011;53426;55.872;37.462;2024-03-25T15:28:23;14.75;;;3.20;;
66384;SDS011;53426;55.872;37.462;2024-03-25T15:31:03;6.13;;;2.58;;
66384;SDS011;53426;55.872;37.462;2024-03-25T15:33:35;6.60;;;2.33;;
66384;SDS011;53426;55.872;37.462;2024-03-25T15:36:01;10.07;;;2.58;;
66384;SDS011;53426;55.872;37.462;2024-03-25T15:38:27;14.32;;;2.83;;
66384;SDS011;53426;55.872;37.462;2024-03-25T15:40:53;19.40;;;5.05;;
66384;SDS011;53426;55.872;37.462;2024-03-25T15:43:37;16.70;;;3.30;;
66384;SDS011;53426;55.872;37.462;2024-03-25T15:46:03;7.97;;;3.05;;
66384;SDS011;53426;55.872;37.462;2024-03-25T15:48:30;12.05;;;2.90;;
66384;SDS011;53426;55.872;37.462;2024-03-25T15:50:56;10.18;;;3.03;;
66384;SDS011;53426;55.872;37.462;2024-03-25T15:53:22;13.93;;;2.90;;
66384;SDS011;53426;55.872;37.462;2024-03-25T15:55:50;11.18;;;3.05;;
66384;SDS011;53426;55.872;37.462;2024-03-25T15:58:18;22.60;;;3.00;;
66384;SDS011;53426;55.872;37.462;2024-03-25T16:00:44;11.25;;;2.60;;
66384;SDS011;53426;55.872;37.462;2024-03-25T16:03:11;15.88;;;2.95;;
66384;SDS011;53426;55.872;37.462;2024-03-25T16:05:38;9.82;;;2.70;;
66384;SDS011;53426;55.872;37.462;2024-03-25T16:08:06;20.45;;;3.63;;
66384;SDS011;53426;55.872;37.462;2024-03-25T16:10:33;19.95;;;3.10;;
66384;SDS011;53426;55.872;37.462;2024-03-25T16:13:01;4.60;;;2.67;;
66384;SDS011;53426;55.872;37.462;2024-03-25T16:18:27;9.95;;;2.85;;
66384;SDS011;53426;55.872;37.462;2024-03-25T16:20:53;12.48;;;3.28;;
66384;SDS011;53426;55.872;37.462;2024-03-25T16:26:58;14.13;;;2.60;;
66384;SDS011;53426;55.872;37.462;2024-03-25T16:29:24;13.05;;;3.17;;
66384;SDS011;53426;55.872;37.462;2024-03-25T16:31:51;9.90;;;3.35;;
66384;SDS011;53426;55.872;37.462;2024-03-25T16:34:17;12.45;;;2.88;;
66384;SDS011;53426;55.872;37.462;2024-03-25T16:36:43;16.38;;;3.42;;
66384;SDS011;53426;55.872;37.462;2024-03-25T16:39:11;10.07;;;3.40;;
66384;SDS011;53426;55.872;37.462;2024-03-25T16:41:37;15.50;;;3.40;;
66384;SDS011;53426;55.872;37.462;2024-03-25T16:44:05;6.82;;;3.47;;
66384;SDS011;53426;55.872;37.462;2024-03-25T16:46:31;16.00;;;4.28;;
66384;SDS011;53426;55.872;37.462;2024-03-25T16:52:16;16.88;;;3.65;;